sensor_id;sensor_type;location;lat;lon;timestamp;P1;durP1;ratioP1;P2;durP2;ratioP2
5054;SDS011;13829;48.990;8.346;2022-07-30T00:02:06;4.63;;;4.03;;
5054;SDS011;13829;48.990;8.346;2022-07-30T00:04:33;6.28;;;4.05;;
5054;SDS011;13829;48.990;8.346;2022-07-30T00:07:00;6.47;;;4.18;;
5054;SDS011;13829;48.990;8.346;2022-07-30T00:09:28;5.90;;;4.30;;
5054;SDS011;13829;48.990;8.346;2022-07-30T00:11:57;5.55;;;4.47;;
5054;SDS011;13829;48.990;8.346;2022-07-30T00:14:24;5.70;;;4.72;;
5054;SDS011;13829;48.990;8.346;2022-07-30T00:16:51;5.68;;;4.40;;
5054;SDS011;13829;48.990;8.346;2022-07-30T00:19:18;5.45;;;4.20;;
5054;SDS011;13829;48.990;8.346;2022-07-30T00:21:45;5.68;;;3.83;;
5054;SDS011;13829;48.990;8.346;2022-07-30T00:24:12;5.90;;;4.43;;
5054;SDS011;13829;48.990;8.346;2022-07-30T00:26:39;4.57;;;4.10;;
5054;SDS011;13829;48.990;8.346;2022-07-30T00:29:08;5.50;;;5.00;;
5054;SDS011;13829;48.990;8.346;2022-07-30T00:31:35;4.82;;;4.32;;
5054;SDS011;13829;48.990;8.346;2022-07-30T00:34:02;7.60;;;4.53;;
5054;SDS011;13829;48.990;8.346;2022-07-30T00:36:29;6.75;;;4.40;;
5054;SDS011;13829;48.990;8.346;2022-07-30T00:38:56;4.97;;;4.57;;
5054;SDS011;13829;48.990;8.346;2022-07-30T00:41:24;5.00;;;4.50;;
5054;SDS011;13829;48.990;8.346;2022-07-30T00:43:51;4.85;;;4.20;;
5054;SDS011;13829;48.990;8.346;2022-07-30T00:46:19;7.13;;;4.72;;
5054;SDS011;13829;48.990;8.346;2022-07-30T00:48:47;4.80;;;4.40;;
5054;SDS011;13829;48.990;8.346;2022-07-30T00:51:14;5.65;;;4.65;;
5054;SDS011;13829;48.990;8.346;2022-07-30T00:53:40;9.23;;;5.30;;
5054;SDS011;13829;48.990;8.346;2022-07-30T00:56:07;5.57;;;4.53;;
5054;SDS011;13829;48.990;8.346;2022-07-30T00:58:34;5.85;;;4.90;;
5054;SDS011;13829;48.990;8.346;2022-07-30T01:01:01;6.88;;;4.88;;
5054;SDS011;13829;48.990;8.346;2022-07-30T01:03:30;6.47;;;5.20;;
5054;SDS011;13829;48.990;8.346;2022-07-30T01:05:57;5.55;;;4.95;;
5054;SDS011;13829;48.990;8.346;2022-07-30T01:08:24;5.57;;;5.07;;
5054;SDS011;13829;48.990;8.346;2022-07-30T01:10:50;5.45;;;4.95;;
5054;SDS011;13829;48.990;8.346;2022-07-30T01:13:18;6.20;;;5.10;;
5054;SDS011;13829;48.990;8.346;2022-07-30T01:15:45;6.43;;;5.65;;
5054;SDS011;13829;48.990;8.346;2022-07-30T01:18:12;6.40;;;5.80;;
5054;SDS011;13829;48.990;8.346;2022-07-30T01:20:44;6.32;;;4.95;;
5054;SDS011;13829;48.990;8.346;2022-07-30T01:23:26;5.85;;;5.18;;
5054;SDS011;13829;48.990;8.346;2022-07-30T01:26:06;5.85;;;5.25;;
5054;SDS011;13829;48.990;8.346;2022-07-30T01:28:37;6.45;;;5.90;;
5054;SDS011;13829;48.990;8.346;2022-07-30T01:31:09;6.78;;;5.40;;
5054;SDS011;13829;48.990;8.346;2022-07-30T01:33:39;6.10;;;5.05;;
5054;SDS011;13829;48.990;8.346;2022-07-30T01:36:12;7.85;;;5.70;;
5054;SDS011;13829;48.990;8.346;2022-07-30T01:38:43;6.53;;;5.82;;
5054;SDS011;13829;48.990;8.346;2022-07-30T01:41:14;6.10;;;5.50;;
5054;SDS011;13829;48.990;8.346;2022-07-30T01:43:44;6.45;;;5.72;;
5054;SDS011;13829;48.990;8.346;2022-07-30T01:46:12;6.82;;;5.60;;
5054;SDS011;13829;48.990;8.346;2022-07-30T01:48:42;5.90;;;5.35;;
5054;SDS011;13829;48.990;8.346;2022-07-30T01:51:11;6.80;;;5.45;;
5054;SDS011;13829;48.990;8.346;2022-07-30T01:53:39;7.35;;;5.63;;
5054;SDS011;13829;48.990;8.346;2022-07-30T01:56:10;7.47;;;5.80;;
5054;SDS011;13829;48.990;8.346;2022-07-30T01:58:41;6.72;;;6.03;;
5054;SDS011;13829;48.990;8.346;2022-07-30T02:01:11;7.38;;;5.63;;
5054;SDS011;13829;48.990;8.346;2022-07-30T02:03:38;19.58;;;7.15;;
5054;SDS011;13829;48.990;8.346;2022-07-30T02:06:07;10.25;;;6.80;;
5054;SDS011;13829;48.990;8.346;2022-07-30T02:08:40;12.02;;;6.60;;
5054;SDS011;13829;48.990;8.346;2022-07-30T02:11:14;17.77;;;7.43;;
5054;SDS011;13829;48.990;8.346;2022-07-30T02:14:05;11.27;;;6.50;;
5054;SDS011;13829;48.990;8.346;2022-07-30T02:16:41;12.55;;;7.68;;
5054;SDS011;13829;48.990;8.346;2022-07-30T02:19:16;8.35;;;6.65;;
5054;SDS011;13829;48.990;8.346;2022-07-30T02:21:47;9.55;;;6.53;;
5054;SDS011;13829;48.990;8.346;2022-07-30T02:24:25;7.97;;;6.22;;
5054;SDS011;13829;48.990;8.346;2022-07-30T02:26:58;10.02;;;6.75;;
5054;SDS011;13829;48.990;8.346;2022-07-30T02:29:33;7.53;;;6.33;;
5054;SDS011;13829;48.990;8.346;2022-07-30T02:32:03;8.85;;;6.97;;
5054;SDS011;13829;48.990;8.346;2022-07-30T02:34:36;7.18;;;6.47;;
5054;SDS011;13829;48.990;8.346;2022-07-30T02:37:06;9.43;;;6.80;;
5054;SDS011;13829;48.990;8.346;2022-07-30T02:39:38;7.72;;;6.78;;
5054;SDS011;13829;48.990;8.346;2022-07-30T02:42:08;7.15;;;6.45;;
5054;SDS011;13829;48.990;8.346;2022-07-30T02:44:41;7.45;;;6.75;;
5054;SDS011;13829;48.990;8.346;2022-07-30T02:47:11;7.70;;;6.90;;
5054;SDS011;13829;48.990;8.346;2022-07-30T02:49:40;7.80;;;7.00;;
5054;SDS011;13829;48.990;8.346;2022-07-30T02:52:09;8.27;;;7.03;;
5054;SDS011;13829;48.990;8.346;2022-07-30T02:54:39;8.47;;;6.67;;
5054;SDS011;13829;48.990;8.346;2022-07-30T02:57:09;7.95;;;6.80;;
5054;SDS011;13829;48.990;8.346;2022-07-30T02:59:41;7.97;;;7.00;;
5054;SDS011;13829;48.990;8.346;2022-07-30T03:02:10;8.67;;;6.40;;
5054;SDS011;13829;48.990;8.346;2022-07-30T03:04:39;8.73;;;6.57;;
5054;SDS011;13829;48.990;8.346;2022-07-30T03:07:09;9.63;;;7.07;;
5054;SDS011;13829;48.990;8.346;2022-07-30T03:09:37;9.33;;;6.63;;
5054;SDS011;13829;48.990;8.346;2022-07-30T03:12:09;8.07;;;6.70;;
5054;SDS011;13829;48.990;8.346;2022-07-30T03:14:39;10.77;;;7.07;;
5054;SDS011;13829;48.990;8.346;2022-07-30T03:17:09;17.93;;;7.30;;
5054;SDS011;13829;48.990;8.346;2022-07-30T03:19:41;8.83;;;6.20;;
5054;SDS011;13829;48.990;8.346;2022-07-30T03:22:10;9.63;;;6.37;;
5054;SDS011;13829;48.990;8.346;2022-07-30T03:24:42;8.27;;;6.77;;
5054;SDS011;13829;48.990;8.346;2022-07-30T03:27:12;8.57;;;6.50;;
5054;SDS011;13829;48.990;8.346;2022-07-30T03:29:43;8.43;;;6.20;;
5054;SDS011;13829;48.990;8.346;2022-07-30T03:32:13;8.47;;;6.00;;
5054;SDS011;13829;48.990;8.346;2022-07-30T03:34:41;8.90;;;7.67;;
5054;SDS011;13829;48.990;8.346;2022-07-30T03:37:10;7.13;;;6.47;;
5054;SDS011;13829;48.990;8.346;2022-07-30T03:39:38;7.93;;;6.70;;
5054;SDS011;13829;48.990;8.346;2022-07-30T03:42:06;7.43;;;6.73;;
5054;SDS011;13829;48.990;8.346;2022-07-30T03:44:34;7.67;;;6.97;;
5054;SDS011;13829;48.990;8.346;2022-07-30T03:47:04;7.13;;;6.43;;
5054;SDS011;13829;48.990;8.346;2022-07-30T03:49:33;7.60;;;6.23;;
5054;SDS011;13829;48.990;8.346;2022-07-30T03:52:00;7.27;;;6.57;;
5054;SDS011;13829;48.990;8.346;2022-07-30T03:54:28;8.03;;;6.63;;
5054;SDS011;13829;48.990;8.346;2022-07-30T03:56:58;7.03;;;6.43;;
5054;SDS011;13829;48.990;8.346;2022-07-30T03:59:26;7.63;;;6.80;;
5054;SDS011;13829;48.990;8.346;2022-07-30T04:01:53;9.20;;;6.70;;
5054;SDS011;13829;48.990;8.346;2022-07-30T04:04:27;8.17;;;6.50;;
5054;SDS011;13829;48.990;8.346;2022-07-30T04:06:55;7.50;;;6.67;;
5054;SDS011;13829;48.990;8.346;2022-07-30T04:09:22;7.07;;;6.47;;
5054;SDS011;13829;48.990;8.346;2022-07-30T04:11:50;7.93;;;6.90;;
5054;SDS011;13829;48.990;8.346;2022-07-30T04:14:17;8.93;;;6.83;;
5054;SDS011;13829;48.990;8.346;2022-07-30T04:16:45;7.40;;;6.67;;
5054;SDS011;13829;48.990;8.346;2022-07-30T04:19:18;8.23;;;6.40;;
5054;SDS011;13829;48.990;8.346;2022-07-30T04:21:53;7.83;;;6.37;;
5054;SDS011;13829;48.990;8.346;2022-07-30T04:24:22;6.93;;;6.20;;
5054;SDS011;13829;48.990;8.346;2022-07-30T04:26:52;7.33;;;6.63;;
5054;SDS011;13829;48.990;8.346;2022-07-30T04:29:19;7.73;;;7.03;;
5054;SDS011;13829;48.990;8.346;2022-07-30T04:31:47;8.03;;;6.93;;
5054;SDS011;13829;48.990;8.346;2022-07-30T04:34:14;7.40;;;6.63;;
5054;SDS011;13829;48.990;8.346;2022-07-30T04:36:41;8.83;;;6.17;;
5054;SDS011;13829;48.990;8.346;2022-07-30T04:39:10;8.67;;;6.77;;
5054;SDS011;13829;48.990;8.346;2022-07-30T04:41:38;9.70;;;6.20;;
5054;SDS011;13829;48.990;8.346;2022-07-30T04:44:05;7.67;;;6.43;;
5054;SDS011;13829;48.990;8.346;2022-07-30T04:46:32;6.53;;;5.57;;
5054;SDS011;13829;48.990;8.346;2022-07-30T04:48:59;6.53;;;5.93;;
5054;SDS011;13829;48.990;8.346;2022-07-30T04:51:27;7.77;;;7.10;;
5054;SDS011;13829;48.990;8.346;2022-07-30T04:53:59;7.03;;;6.10;;
5054;SDS011;13829;48.990;8.346;2022-07-30T04:56:31;6.70;;;6.10;;
5054;SDS011;13829;48.990;8.346;2022-07-30T04:59:01;7.20;;;6.23;;
5054;SDS011;13829;48.990;8.346;2022-07-30T05:01:31;6.47;;;5.80;;
5054;SDS011;13829;48.990;8.346;2022-07-30T05:04:02;9.00;;;5.90;;
5054;SDS011;13829;48.990;8.346;2022-07-30T05:06:32;7.30;;;6.53;;
5054;SDS011;13829;48.990;8.346;2022-07-30T05:09:00;7.60;;;6.50;;
5054;SDS011;13829;48.990;8.346;2022-07-30T05:11:27;6.05;;;5.35;;
5054;SDS011;13829;48.990;8.346;2022-07-30T05:13:56;7.70;;;6.90;;
5054;SDS011;13829;48.990;8.346;2022-07-30T05:16:23;6.10;;;5.47;;
5054;SDS011;13829;48.990;8.346;2022-07-30T05:18:50;7.97;;;6.10;;
5054;SDS011;13829;48.990;8.346;2022-07-30T05:21:17;6.85;;;5.90;;
5054;SDS011;13829;48.990;8.346;2022-07-30T05:23:44;7.03;;;5.93;;
5054;SDS011;13829;48.990;8.346;2022-07-30T05:26:11;7.97;;;5.97;;
5054;SDS011;13829;48.990;8.346;2022-07-30T05:28:38;8.50;;;6.63;;
5054;SDS011;13829;48.990;8.346;2022-07-30T05:31:07;9.63;;;5.38;;
5054;SDS011;13829;48.990;8.346;2022-07-30T05:33:34;7.28;;;5.93;;
5054;SDS011;13829;48.990;8.346;2022-07-30T05:36:01;7.80;;;5.90;;
5054;SDS011;13829;48.990;8.346;2022-07-30T05:38:28;7.40;;;5.80;;
5054;SDS011;13829;48.990;8.346;2022-07-30T05:40:55;10.23;;;6.22;;
5054;SDS011;13829;48.990;8.346;2022-07-30T05:43:22;8.57;;;5.45;;
5054;SDS011;13829;48.990;8.346;2022-07-30T05:45:49;9.82;;;5.47;;
5054;SDS011;13829;48.990;8.346;2022-07-30T05:48:17;7.05;;;6.10;;
5054;SDS011;13829;48.990;8.346;2022-07-30T05:50:44;7.97;;;5.75;;
5054;SDS011;13829;48.990;8.346;2022-07-30T05:53:11;8.52;;;5.97;;
5054;SDS011;13829;48.990;8.346;2022-07-30T05:55:38;7.03;;;5.57;;
5054;SDS011;13829;48.990;8.346;2022-07-30T05:58:05;6.10;;;5.10;;
5054;SDS011;13829;48.990;8.346;2022-07-30T06:00:32;6.80;;;6.10;;
5054;SDS011;13829;48.990;8.346;2022-07-30T06:02:59;7.47;;;5.78;;
5054;SDS011;13829;48.990;8.346;2022-07-30T06:05:28;9.00;;;5.93;;
5054;SDS011;13829;48.990;8.346;2022-07-30T06:07:56;7.47;;;5.38;;
5054;SDS011;13829;48.990;8.346;2022-07-30T06:10:23;7.65;;;5.28;;
5054;SDS011;13829;48.990;8.346;2022-07-30T06:12:51;7.55;;;5.85;;
5054;SDS011;13829;48.990;8.346;2022-07-30T06:15:18;7.75;;;5.97;;
5054;SDS011;13829;48.990;8.346;2022-07-30T06:17:45;6.13;;;5.03;;
5054;SDS011;13829;48.990;8.346;2022-07-30T06:20:14;6.65;;;5.22;;
5054;SDS011;13829;48.990;8.346;2022-07-30T06:22:44;10.75;;;5.15;;
5054;SDS011;13829;48.990;8.346;2022-07-30T06:25:11;7.22;;;5.60;;
5054;SDS011;13829;48.990;8.346;2022-07-30T06:27:38;6.45;;;4.90;;
5054;SDS011;13829;48.990;8.346;2022-07-30T06:30:06;9.00;;;5.22;;
5054;SDS011;13829;48.990;8.346;2022-07-30T06:32:36;6.30;;;4.88;;
5054;SDS011;13829;48.990;8.346;2022-07-30T06:35:03;7.35;;;4.53;;
5054;SDS011;13829;48.990;8.346;2022-07-30T06:37:31;5.13;;;4.55;;
5054;SDS011;13829;48.990;8.346;2022-07-30T06:40:00;7.55;;;4.65;;
5054;SDS011;13829;48.990;8.346;2022-07-30T06:42:27;8.05;;;5.03;;
5054;SDS011;13829;48.990;8.346;2022-07-30T06:44:53;6.47;;;5.25;;
5054;SDS011;13829;48.990;8.346;2022-07-30T06:47:21;8.73;;;5.10;;
5054;SDS011;13829;48.990;8.346;2022-07-30T06:49:50;6.85;;;4.90;;
5054;SDS011;13829;48.990;8.346;2022-07-30T06:52:17;7.20;;;5.28;;
5054;SDS011;13829;48.990;8.346;2022-07-30T06:54:45;6.22;;;4.80;;
5054;SDS011;13829;48.990;8.346;2022-07-30T06:57:14;5.68;;;4.78;;
5054;SDS011;13829;48.990;8.346;2022-07-30T06:59:42;7.03;;;4.88;;
5054;SDS011;13829;48.990;8.346;2022-07-30T07:02:09;6.95;;;4.78;;
5054;SDS011;13829;48.990;8.346;2022-07-30T07:04:36;9.07;;;4.60;;
5054;SDS011;13829;48.990;8.346;2022-07-30T07:07:03;6.45;;;5.10;;
5054;SDS011;13829;48.990;8.346;2022-07-30T07:09:30;6.28;;;4.68;;
5054;SDS011;13829;48.990;8.346;2022-07-30T07:11:57;5.13;;;4.35;;
5054;SDS011;13829;48.990;8.346;2022-07-30T07:14:25;5.68;;;4.03;;
5054;SDS011;13829;48.990;8.346;2022-07-30T07:16:52;5.57;;;3.75;;
5054;SDS011;13829;48.990;8.346;2022-07-30T07:19:19;6.43;;;4.25;;
5054;SDS011;13829;48.990;8.346;2022-07-30T07:21:46;6.55;;;3.65;;
5054;SDS011;13829;48.990;8.346;2022-07-30T07:24:13;5.55;;;3.92;;
5054;SDS011;13829;48.990;8.346;2022-07-30T07:26:40;7.07;;;3.83;;
5054;SDS011;13829;48.990;8.346;2022-07-30T07:29:07;4.90;;;3.75;;
5054;SDS011;13829;48.990;8.346;2022-07-30T07:31:36;7.30;;;3.90;;
5054;SDS011;13829;48.990;8.346;2022-07-30T07:34:03;6.30;;;4.03;;
5054;SDS011;13829;48.990;8.346;2022-07-30T07:36:30;6.13;;;3.63;;
5054;SDS011;13829;48.990;8.346;2022-07-30T07:38:58;5.50;;;3.58;;
5054;SDS011;13829;48.990;8.346;2022-07-30T07:41:25;5.72;;;3.10;;
5054;SDS011;13829;48.990;8.346;2022-07-30T07:43:52;5.80;;;3.45;;
5054;SDS011;13829;48.990;8.346;2022-07-30T07:46:19;4.07;;;3.00;;
5054;SDS011;13829;48.990;8.346;2022-07-30T07:48:48;6.18;;;3.05;;
5054;SDS011;13829;48.990;8.346;2022-07-30T07:51:15;4.53;;;3.25;;
5054;SDS011;13829;48.990;8.346;2022-07-30T07:53:42;6.03;;;3.35;;
5054;SDS011;13829;48.990;8.346;2022-07-30T07:56:08;4.28;;;2.80;;
5054;SDS011;13829;48.990;8.346;2022-07-30T07:58:35;5.13;;;2.90;;
5054;SDS011;13829;48.990;8.346;2022-07-30T08:01:02;5.55;;;3.60;;
5054;SDS011;13829;48.990;8.346;2022-07-30T08:03:29;4.90;;;3.30;;
5054;SDS011;13829;48.990;8.346;2022-07-30T08:05:58;4.57;;;3.22;;
5054;SDS011;13829;48.990;8.346;2022-07-30T08:08:25;5.15;;;2.90;;
5054;SDS011;13829;48.990;8.346;2022-07-30T08:10:52;6.78;;;3.60;;
5054;SDS011;13829;48.990;8.346;2022-07-30T08:13:19;6.80;;;3.35;;
5054;SDS011;13829;48.990;8.346;2022-07-30T08:15:47;3.70;;;3.08;;
5054;SDS011;13829;48.990;8.346;2022-07-30T08:18:14;5.75;;;3.53;;
5054;SDS011;13829;48.990;8.346;2022-07-30T08:20:41;4.95;;;3.10;;
5054;SDS011;13829;48.990;8.346;2022-07-30T08:23:10;7.10;;;3.40;;
5054;SDS011;13829;48.990;8.346;2022-07-30T08:25:37;4.40;;;3.85;;
5054;SDS011;13829;48.990;8.346;2022-07-30T08:28:04;5.15;;;3.33;;
5054;SDS011;13829;48.990;8.346;2022-07-30T08:30:31;6.13;;;3.53;;
5054;SDS011;13829;48.990;8.346;2022-07-30T08:32:58;5.70;;;3.72;;
5054;SDS011;13829;48.990;8.346;2022-07-30T08:35:25;5.85;;;3.63;;
5054;SDS011;13829;48.990;8.346;2022-07-30T08:37:52;9.20;;;4.07;;
5054;SDS011;13829;48.990;8.346;2022-07-30T08:40:21;28.05;;;10.23;;
5054;SDS011;13829;48.990;8.346;2022-07-30T08:42:51;47.78;;;6.57;;
5054;SDS011;13829;48.990;8.346;2022-07-30T08:45:18;34.85;;;8.13;;
5054;SDS011;13829;48.990;8.346;2022-07-30T08:47:47;6.55;;;3.90;;
5054;SDS011;13829;48.990;8.346;2022-07-30T08:50:16;5.45;;;3.40;;
5054;SDS011;13829;48.990;8.346;2022-07-30T08:52:44;5.65;;;3.28;;
5054;SDS011;13829;48.990;8.346;2022-07-30T08:55:13;15.85;;;4.47;;
5054;SDS011;13829;48.990;8.346;2022-07-30T08:57:42;12.93;;;5.85;;
5054;SDS011;13829;48.990;8.346;2022-07-30T09:00:10;5.20;;;3.80;;
5054;SDS011;13829;48.990;8.346;2022-07-30T09:02:39;7.03;;;3.70;;
5054;SDS011;13829;48.990;8.346;2022-07-30T09:05:06;8.18;;;3.13;;
5054;SDS011;13829;48.990;8.346;2022-07-30T09:07:35;6.78;;;2.75;;
5054;SDS011;13829;48.990;8.346;2022-07-30T09:10:04;5.43;;;3.17;;
5054;SDS011;13829;48.990;8.346;2022-07-30T09:12:33;6.78;;;3.25;;
5054;SDS011;13829;48.990;8.346;2022-07-30T09:15:05;4.85;;;3.33;;
5054;SDS011;13829;48.990;8.346;2022-07-30T09:17:45;4.65;;;3.28;;
5054;SDS011;13829;48.990;8.346;2022-07-30T09:20:20;3.42;;;2.85;;
5054;SDS011;13829;48.990;8.346;2022-07-30T09:22:50;3.75;;;2.88;;
5054;SDS011;13829;48.990;8.346;2022-07-30T09:25:35;4.30;;;3.05;;
5054;SDS011;13829;48.990;8.346;2022-07-30T09:28:05;7.00;;;3.20;;
5054;SDS011;13829;48.990;8.346;2022-07-30T09:30:43;6.20;;;2.97;;
5054;SDS011;13829;48.990;8.346;2022-07-30T09:33:13;5.78;;;3.15;;
5054;SDS011;13829;48.990;8.346;2022-07-30T09:35:55;6.93;;;3.20;;
5054;SDS011;13829;48.990;8.346;2022-07-30T09:38:22;4.05;;;2.95;;
5054;SDS011;13829;48.990;8.346;2022-07-30T09:40:50;3.38;;;2.83;;
5054;SDS011;13829;48.990;8.346;2022-07-30T09:43:19;8.00;;;3.20;;
5054;SDS011;13829;48.990;8.346;2022-07-30T09:45:51;4.53;;;3.10;;
5054;SDS011;13829;48.990;8.346;2022-07-30T09:48:24;5.55;;;2.92;;
5054;SDS011;13829;48.990;8.346;2022-07-30T09:50:53;5.82;;;3.40;;
5054;SDS011;13829;48.990;8.346;2022-07-30T09:53:21;5.45;;;3.10;;
5054;SDS011;13829;48.990;8.346;2022-07-30T09:55:48;7.50;;;3.22;;
5054;SDS011;13829;48.990;8.346;2022-07-30T09:58:16;5.35;;;3.22;;
5054;SDS011;13829;48.990;8.346;2022-07-30T10:00:43;5.47;;;3.30;;
5054;SDS011;13829;48.990;8.346;2022-07-30T10:03:15;4.80;;;2.83;;
5054;SDS011;13829;48.990;8.346;2022-07-30T10:05:50;9.15;;;3.05;;
5054;SDS011;13829;48.990;8.346;2022-07-30T10:08:19;5.75;;;2.83;;
5054;SDS011;13829;48.990;8.346;2022-07-30T10:11:04;4.22;;;2.80;;
5054;SDS011;13829;48.990;8.346;2022-07-30T10:13:31;5.63;;;2.97;;
5054;SDS011;13829;48.990;8.346;2022-07-30T10:16:02;4.88;;;3.25;;
5054;SDS011;13829;48.990;8.346;2022-07-30T10:18:31;6.57;;;3.67;;
5054;SDS011;13829;48.990;8.346;2022-07-30T10:21:00;4.63;;;2.75;;
5054;SDS011;13829;48.990;8.346;2022-07-30T10:23:29;6.28;;;3.15;;
5054;SDS011;13829;48.990;8.346;2022-07-30T10:25:57;5.53;;;3.47;;
5054;SDS011;13829;48.990;8.346;2022-07-30T10:28:25;5.95;;;3.00;;
5054;SDS011;13829;48.990;8.346;2022-07-30T10:30:54;4.53;;;3.20;;
5054;SDS011;13829;48.990;8.346;2022-07-30T10:33:24;4.75;;;3.17;;
5054;SDS011;13829;48.990;8.346;2022-07-30T10:35:55;4.30;;;2.83;;
5054;SDS011;13829;48.990;8.346;2022-07-30T10:38:25;5.40;;;2.80;;
5054;SDS011;13829;48.990;8.346;2022-07-30T10:40:59;3.08;;;2.78;;
5054;SDS011;13829;48.990;8.346;2022-07-30T10:43:40;5.78;;;2.95;;
5054;SDS011;13829;48.990;8.346;2022-07-30T10:46:35;9.23;;;3.00;;
5054;SDS011;13829;48.990;8.346;2022-07-30T10:49:20;7.82;;;2.88;;
5054;SDS011;13829;48.990;8.346;2022-07-30T10:51:49;3.15;;;2.85;;
5054;SDS011;13829;48.990;8.346;2022-07-30T10:57:10;4.57;;;2.60;;
5054;SDS011;13829;48.990;8.346;2022-07-30T11:05:42;4.78;;;2.40;;
5054;SDS011;13829;48.990;8.346;2022-07-30T11:10:50;3.30;;;2.33;;
5054;SDS011;13829;48.990;8.346;2022-07-30T11:13:17;5.57;;;2.70;;
5054;SDS011;13829;48.990;8.346;2022-07-30T11:15:51;4.25;;;2.67;;
5054;SDS011;13829;48.990;8.346;2022-07-30T11:18:22;3.40;;;2.60;;
5054;SDS011;13829;48.990;8.346;2022-07-30T11:21:12;3.90;;;2.90;;
5054;SDS011;13829;48.990;8.346;2022-07-30T11:23:42;3.60;;;2.10;;
5054;SDS011;13829;48.990;8.346;2022-07-30T11:26:12;3.00;;;2.70;;
5054;SDS011;13829;48.990;8.346;2022-07-30T11:29:36;4.85;;;2.60;;
5054;SDS011;13829;48.990;8.346;2022-07-30T11:32:25;6.20;;;2.55;;
5054;SDS011;13829;48.990;8.346;2022-07-30T11:35:10;3.08;;;2.20;;
5054;SDS011;13829;48.990;8.346;2022-07-30T11:37:54;4.20;;;2.17;;
5054;SDS011;13829;48.990;8.346;2022-07-30T11:40:23;2.58;;;2.17;;
5054;SDS011;13829;48.990;8.346;2022-07-30T11:43:13;4.20;;;2.65;;
5054;SDS011;13829;48.990;8.346;2022-07-30T11:45:45;2.58;;;2.30;;
5054;SDS011;13829;48.990;8.346;2022-07-30T11:48:15;4.35;;;2.00;;
5054;SDS011;13829;48.990;8.346;2022-07-30T11:50:45;3.28;;;2.53;;
5054;SDS011;13829;48.990;8.346;2022-07-30T11:53:14;2.50;;;2.28;;
5054;SDS011;13829;48.990;8.346;2022-07-30T11:55:45;4.15;;;2.10;;
5054;SDS011;13829;48.990;8.346;2022-07-30T11:58:25;3.28;;;2.08;;
5054;SDS011;13829;48.990;8.346;2022-07-30T12:00:54;3.35;;;2.05;;
5054;SDS011;13829;48.990;8.346;2022-07-30T12:03:24;3.70;;;2.10;;
5054;SDS011;13829;48.990;8.346;2022-07-30T12:05:56;3.05;;;2.30;;
5054;SDS011;13829;48.990;8.346;2022-07-30T12:08:37;2.58;;;2.15;;
5054;SDS011;13829;48.990;8.346;2022-07-30T12:11:06;2.47;;;2.00;;
5054;SDS011;13829;48.990;8.346;2022-07-30T12:13:34;2.75;;;1.90;;
5054;SDS011;13829;48.990;8.346;2022-07-30T12:16:06;3.25;;;2.10;;
5054;SDS011;13829;48.990;8.346;2022-07-30T12:18:34;3.75;;;1.92;;
5054;SDS011;13829;48.990;8.346;2022-07-30T12:21:03;3.17;;;2.15;;
5054;SDS011;13829;48.990;8.346;2022-07-30T12:23:32;3.72;;;2.20;;
5054;SDS011;13829;48.990;8.346;2022-07-30T12:26:00;4.85;;;2.35;;
5054;SDS011;13829;48.990;8.346;2022-07-30T12:28:28;3.67;;;2.13;;
5054;SDS011;13829;48.990;8.346;2022-07-30T12:30:59;4.20;;;1.88;;
5054;SDS011;13829;48.990;8.346;2022-07-30T12:33:28;2.95;;;2.00;;
5054;SDS011;13829;48.990;8.346;2022-07-30T12:35:57;3.88;;;2.00;;
5054;SDS011;13829;48.990;8.346;2022-07-30T12:38:26;3.67;;;1.95;;
5054;SDS011;13829;48.990;8.346;2022-07-30T12:40:55;2.28;;;1.90;;
5054;SDS011;13829;48.990;8.346;2022-07-30T12:43:40;5.10;;;2.00;;
5054;SDS011;13829;48.990;8.346;2022-07-30T12:46:14;3.03;;;1.95;;
5054;SDS011;13829;48.990;8.346;2022-07-30T12:48:50;2.45;;;2.00;;
5054;SDS011;13829;48.990;8.346;2022-07-30T12:51:21;2.90;;;1.70;;
5054;SDS011;13829;48.990;8.346;2022-07-30T12:53:50;3.05;;;1.63;;
5054;SDS011;13829;48.990;8.346;2022-07-30T12:56:22;1.60;;;1.50;;
5054;SDS011;13829;48.990;8.346;2022-07-30T12:58:52;4.45;;;2.00;;
5054;SDS011;13829;48.990;8.346;2022-07-30T13:04:11;2.03;;;1.63;;
5054;SDS011;13829;48.990;8.346;2022-07-30T13:06:39;4.45;;;1.98;;
5054;SDS011;13829;48.990;8.346;2022-07-30T13:09:15;3.20;;;1.75;;
5054;SDS011;13829;48.990;8.346;2022-07-30T13:11:45;2.47;;;1.60;;
5054;SDS011;13829;48.990;8.346;2022-07-30T13:14:13;2.95;;;1.92;;
5054;SDS011;13829;48.990;8.346;2022-07-30T13:16:42;3.17;;;1.92;;
5054;SDS011;13829;48.990;8.346;2022-07-30T13:19:10;5.55;;;1.90;;
5054;SDS011;13829;48.990;8.346;2022-07-30T13:21:38;1.92;;;1.73;;
5054;SDS011;13829;48.990;8.346;2022-07-30T13:24:07;3.90;;;1.60;;
5054;SDS011;13829;48.990;8.346;2022-07-30T13:26:35;2.22;;;1.70;;
5054;SDS011;13829;48.990;8.346;2022-07-30T13:29:02;3.78;;;1.90;;
5054;SDS011;13829;48.990;8.346;2022-07-30T13:31:29;3.30;;;1.90;;
5054;SDS011;13829;48.990;8.346;2022-07-30T13:33:58;4.43;;;1.70;;
5054;SDS011;13829;48.990;8.346;2022-07-30T13:36:25;4.10;;;2.35;;
5054;SDS011;13829;48.990;8.346;2022-07-30T13:38:54;2.38;;;1.90;;
5054;SDS011;13829;48.990;8.346;2022-07-30T13:41:21;2.75;;;1.85;;
5054;SDS011;13829;48.990;8.346;2022-07-30T13:43:48;3.00;;;1.73;;
5054;SDS011;13829;48.990;8.346;2022-07-30T13:46:15;2.10;;;1.90;;
5054;SDS011;13829;48.990;8.346;2022-07-30T13:48:42;2.63;;;1.88;;
5054;SDS011;13829;48.990;8.346;2022-07-30T13:51:11;3.30;;;2.00;;
5054;SDS011;13829;48.990;8.346;2022-07-30T13:53:38;2.42;;;2.20;;
5054;SDS011;13829;48.990;8.346;2022-07-30T13:56:05;2.38;;;1.77;;
5054;SDS011;13829;48.990;8.346;2022-07-30T13:58:32;3.35;;;2.03;;
5054;SDS011;13829;48.990;8.346;2022-07-30T14:00:59;1.80;;;1.70;;
5054;SDS011;13829;48.990;8.346;2022-07-30T14:03:26;2.00;;;1.80;;
5054;SDS011;13829;48.990;8.346;2022-07-30T14:05:53;2.38;;;1.83;;
5054;SDS011;13829;48.990;8.346;2022-07-30T14:08:21;2.97;;;1.85;;
5054;SDS011;13829;48.990;8.346;2022-07-30T14:10:49;2.35;;;1.80;;
5054;SDS011;13829;48.990;8.346;2022-07-30T14:13:16;2.15;;;1.50;;
5054;SDS011;13829;48.990;8.346;2022-07-30T14:15:43;2.08;;;1.55;;
5054;SDS011;13829;48.990;8.346;2022-07-30T14:18:10;5.32;;;1.85;;
5054;SDS011;13829;48.990;8.346;2022-07-30T14:20:37;3.67;;;1.88;;
5054;SDS011;13829;48.990;8.346;2022-07-30T14:23:04;2.95;;;1.40;;
5054;SDS011;13829;48.990;8.346;2022-07-30T14:25:32;2.20;;;1.30;;
5054;SDS011;13829;48.990;8.346;2022-07-30T14:27:59;1.50;;;1.40;;
5054;SDS011;13829;48.990;8.346;2022-07-30T14:30:26;1.83;;;1.27;;
5054;SDS011;13829;48.990;8.346;2022-07-30T14:32:54;1.40;;;1.20;;
5054;SDS011;13829;48.990;8.346;2022-07-30T14:35:21;1.92;;;1.55;;
5054;SDS011;13829;48.990;8.346;2022-07-30T14:37:48;2.33;;;1.40;;
5054;SDS011;13829;48.990;8.346;2022-07-30T14:40:15;3.53;;;1.67;;
5054;SDS011;13829;48.990;8.346;2022-07-30T14:42:43;2.97;;;1.30;;
5054;SDS011;13829;48.990;8.346;2022-07-30T14:45:11;2.10;;;1.65;;
5054;SDS011;13829;48.990;8.346;2022-07-30T14:47:39;3.88;;;1.25;;
5054;SDS011;13829;48.990;8.346;2022-07-30T14:50:06;3.85;;;1.30;;
5054;SDS011;13829;48.990;8.346;2022-07-30T14:52:34;4.10;;;1.50;;
5054;SDS011;13829;48.990;8.346;2022-07-30T14:55:03;2.65;;;1.48;;
5054;SDS011;13829;48.990;8.346;2022-07-30T14:57:31;2.85;;;1.52;;
5054;SDS011;13829;48.990;8.346;2022-07-30T14:59:59;2.53;;;1.67;;
5054;SDS011;13829;48.990;8.346;2022-07-30T15:02:27;6.20;;;1.73;;
5054;SDS011;13829;48.990;8.346;2022-07-30T15:04:54;3.45;;;2.30;;
5054;SDS011;13829;48.990;8.346;2022-07-30T15:07:21;2.28;;;1.50;;
5054;SDS011;13829;48.990;8.346;2022-07-30T15:09:48;2.15;;;1.45;;
5054;SDS011;13829;48.990;8.346;2022-07-30T15:12:15;2.70;;;1.60;;
5054;SDS011;13829;48.990;8.346;2022-07-30T15:14:42;6.22;;;2.25;;
5054;SDS011;13829;48.990;8.346;2022-07-30T15:17:11;1.98;;;1.40;;
5054;SDS011;13829;48.990;8.346;2022-07-30T15:19:38;4.45;;;1.80;;
5054;SDS011;13829;48.990;8.346;2022-07-30T15:22:05;2.92;;;1.55;;
5054;SDS011;13829;48.990;8.346;2022-07-30T15:24:33;2.35;;;1.23;;
5054;SDS011;13829;48.990;8.346;2022-07-30T15:27:00;2.33;;;1.23;;
5054;SDS011;13829;48.990;8.346;2022-07-30T15:29:27;1.13;;;1.02;;